sensor_id;sensor_type;location;lat;lon;timestamp;temperature;humidity
17172;DHT22;8701;50.150;8.756;2022-12-07T00:53:12;5.20;99.90
17172;DHT22;8701;50.150;8.756;2022-12-07T00:57:14;5.20;99.90
17172;DHT22;8701;50.150;8.756;2022-12-07T01:01:17;5.20;99.90
17172;DHT22;8701;50.150;8.756;2022-12-07T01:05:19;5.20;99.90
17172;DHT22;8701;50.150;8.756;2022-12-07T01:09:23;5.20;99.90
17172;DHT22;8701;50.150;8.756;2022-12-07T01:13:28;5.30;99.90
17172;DHT22;8701;50.150;8.756;2022-12-07T01:17:30;5.30;99.90
17172;DHT22;8701;50.150;8.756;2022-12-07T01:21:33;5.30;99.90
17172;DHT22;8701;50.150;8.756;2022-12-07T01:25:39;5.30;99.90
17172;DHT22;8701;50.150;8.756;2022-12-07T01:29:41;5.30;99.90
17172;DHT22;8701;50.150;8.756;2022-12-07T01:33:46;5.20;99.90
17172;DHT22;8701;50.150;8.756;2022-12-07T01:37:49;5.20;99.90
17172;DHT22;8701;50.150;8.756;2022-12-07T01:41:53;5.20;99.90
17172;DHT22;8701;50.150;8.756;2022-12-07T01:45:56;5.20;99.90
17172;DHT22;8701;50.150;8.756;2022-12-07T01:49:58;5.20;99.90
17172;DHT22;8701;50.150;8.756;2022-12-07T01:54:01;5.20;99.90
17172;DHT22;8701;50.150;8.756;2022-12-07T01:58:05;5.30;99.90
17172;DHT22;8701;50.150;8.756;2022-12-07T02:02:10;5.20;99.90
17172;DHT22;8701;50.150;8.756;2022-12-07T02:06:17;5.30;99.90
17172;DHT22;8701;50.150;8.756;2022-12-07T02:10:23;5.30;99.90
17172;DHT22;8701;50.150;8.756;2022-12-07T02:14:27;5.20;99.90
17172;DHT22;8701;50.150;8.756;2022-12-07T02:18:38;5.30;99.90
17172;DHT22;8701;50.150;8.756;2022-12-07T02:23:00;5.30;99.90
17172;DHT22;8701;50.150;8.756;2022-12-07T02:27:36;5.30;99.90
17172;DHT22;8701;50.150;8.756;2022-12-07T02:31:45;5.30;99.90
17172;DHT22;8701;50.150;8.756;2022-12-07T02:35:51;5.20;99.90
17172;DHT22;8701;50.150;8.756;2022-12-07T02:40:00;5.20;99.90
17172;DHT22;8701;50.150;8.756;2022-12-07T02:44:07;5.20;99.90
17172;DHT22;8701;50.150;8.756;2022-12-07T02:48:14;5.10;99.90
17172;DHT22;8701;50.150;8.756;2022-12-07T02:52:18;5.00;99.90
17172;DHT22;8701;50.150;8.756;2022-12-07T02:56:26;5.10;99.90
17172;DHT22;8701;50.150;8.756;2022-12-07T03:00:40;5.10;99.90
17172;DHT22;8701;50.150;8.756;2022-12-07T03:04:49;5.10;99.90
17172;DHT22;8701;50.150;8.756;2022-12-07T03:08:57;5.30;99.90
17172;DHT22;8701;50.150;8.756;2022-12-07T03:13:05;5.10;99.90
17172;DHT22;8701;50.150;8.756;2022-12-07T03:17:12;5.10;99.90
17172;DHT22;8701;50.150;8.756;2022-12-07T03:21:20;5.10;99.90
17172;DHT22;8701;50.150;8.756;2022-12-07T03:25:23;5.10;99.90
17172;DHT22;8701;50.150;8.756;2022-12-07T03:29:29;5.20;99.90
17172;DHT22;8701;50.150;8.756;2022-12-07T03:33:36;5.20;99.90
17172;DHT22;8701;50.150;8.756;2022-12-07T03:37:45;5.30;99.90
17172;DHT22;8701;50.150;8.756;2022-12-07T03:41:50;5.30;99.90
17172;DHT22;8701;50.150;8.756;2022-12-07T03:46:00;5.30;99.90
17172;DHT22;8701;50.150;8.756;2022-12-07T03:50:09;5.30;99.90
17172;DHT22;8701;50.150;8.756;2022-12-07T03:54:21;5.20;99.90
17172;DHT22;8701;50.150;8.756;2022-12-07T03:58:25;5.20;99.90
17172;DHT22;8701;50.150;8.756;2022-12-07T04:02:28;5.20;99.90
17172;DHT22;8701;50.150;8.756;2022-12-07T04:06:34;5.20;99.90
17172;DHT22;8701;50.150;8.756;2022-12-07T04:10:40;5.20;99.90
17172;DHT22;8701;50.150;8.756;2022-12-07T04:14:42;5.20;99.90
17172;DHT22;8701;50.150;8.756;2022-12-07T04:18:44;5.20;99.90
17172;DHT22;8701;50.150;8.756;2022-12-07T04:22:47;5.20;99.90
17172;DHT22;8701;50.150;8.756;2022-12-07T04:26:50;5.20;99.90
17172;DHT22;8701;50.150;8.756;2022-12-07T04:30:53;5.20;99.90
17172;DHT22;8701;50.150;8.756;2022-12-07T04:34:55;5.20;99.90
17172;DHT22;8701;50.150;8.756;2022-12-07T04:38:57;5.30;99.90
17172;DHT22;8701;50.150;8.756;2022-12-07T04:43:01;5.30;99.90
17172;DHT22;8701;50.150;8.756;2022-12-07T04:47:04;5.30;99.90
17172;DHT22;8701;50.150;8.756;2022-12-07T04:51:06;5.40;99.90
17172;DHT22;8701;50.150;8.756;2022-12-07T04:55:08;5.40;99.90
17172;DHT22;8701;50.150;8.756;2022-12-07T04:59:12;5.40;99.90
17172;DHT22;8701;50.150;8.756;2022-12-07T05:03:17;5.40;99.90
17172;DHT22;8701;50.150;8.756;2022-12-07T05:07:19;5.40;99.90
17172;DHT22;8701;50.150;8.756;2022-12-07T05:11:21;5.40;99.90
17172;DHT22;8701;50.150;8.756;2022-12-07T05:15:43;5.60;99.90
17172;DHT22;8701;50.150;8.756;2022-12-07T05:19:45;5.40;99.90
17172;DHT22;8701;50.150;8.756;2022-12-07T05:23:47;5.40;99.90
17172;DHT22;8701;50.150;8.756;2022-12-07T05:27:52;5.40;99.90
17172;DHT22;8701;50.150;8.756;2022-12-07T05:31:55;5.40;99.90
17172;DHT22;8701;50.150;8.756;2022-12-07T05:35:58;5.30;99.90
17172;DHT22;8701;50.150;8.756;2022-12-07T05:40:07;5.40;99.90
17172;DHT22;8701;50.150;8.756;2022-12-07T05:44:09;5.40;99.90
17172;DHT22;8701;50.150;8.756;2022-12-07T05:48:13;5.40;99.90
17172;DHT22;8701;50.150;8.756;2022-12-07T05:52:15;5.70;99.90
17172;DHT22;8701;50.150;8.756;2022-12-07T05:56:18;5.50;99.90
17172;DHT22;8701;50.150;8.756;2022-12-07T06:00:20;5.50;99.90
17172;DHT22;8701;50.150;8.756;2022-12-07T06:04:25;5.50;99.90
17172;DHT22;8701;50.150;8.756;2022-12-07T06:08:28;5.60;99.90
17172;DHT22;8701;50.150;8.756;2022-12-07T06:12:30;5.60;99.90
17172;DHT22;8701;50.150;8.756;2022-12-07T06:16:40;5.60;99.90
17172;DHT22;8701;50.150;8.756;2022-12-07T06:20:44;5.60;99.90
17172;DHT22;8701;50.150;8.756;2022-12-07T06:24:46;5.60;99.90
17172;DHT22;8701;50.150;8.756;2022-12-07T06:28:49;5.60;99.90
17172;DHT22;8701;50.150;8.756;2022-12-07T06:32:52;5.60;99.90
17172;DHT22;8701;50.150;8.756;2022-12-07T06:36:55;5.50;99.90
17172;DHT22;8701;50.150;8.756;2022-12-07T06:40:57;5.50;99.90
17172;DHT22;8701;50.150;8.756;2022-12-07T06:45:00;5.50;99.90
17172;DHT22;8701;50.150;8.756;2022-12-07T06:49:02;5.50;99.90
17172;DHT22;8701;50.150;8.756;2022-12-07T06:53:06;5.50;99.90
17172;DHT22;8701;50.150;8.756;2022-12-07T06:57:08;5.50;99.90
17172;DHT22;8701;50.150;8.756;2022-12-07T07:01:11;5.60;99.90
17172;DHT22;8701;50.150;8.756;2022-12-07T07:05:14;5.50;99.90
17172;DHT22;8701;50.150;8.756;2022-12-07T07:09:18;5.50;99.90
17172;DHT22;8701;50.150;8.756;2022-12-07T07:13:20;5.50;99.90
17172;DHT22;8701;50.150;8.756;2022-12-07T07:17:22;5.50;99.90
17172;DHT22;8701;50.150;8.756;2022-12-07T07:21:25;5.50;99.90
17172;DHT22;8701;50.150;8.756;2022-12-07T07:25:29;5.50;99.90
17172;DHT22;8701;50.150;8.756;2022-12-07T07:29:34;5.50;99.90
17172;DHT22;8701;50.150;8.756;2022-12-07T07:33:37;5.50;99.90
17172;DHT22;8701;50.150;8.756;2022-12-07T07:37:40;5.60;99.90
17172;DHT22;8701;50.150;8.756;2022-12-07T07:41:44;5.50;99.90
17172;DHT22;8701;50.150;8.756;2022-12-07T07:45:49;5.50;99.90
17172;DHT22;8701;50.150;8.756;2022-12-07T07:49:52;5.50;99.90
17172;DHT22;8701;50.150;8.756;2022-12-07T07:53:55;5.60;99.90
17172;DHT22;8701;50.150;8.756;2022-12-07T07:58:00;5.60;99.90
17172;DHT22;8701;50.150;8.756;2022-12-07T08:02:03;5.70;99.90
17172;DHT22;8701;50.150;8.756;2022-12-07T08:06:07;6.00;99.90
17172;DHT22;8701;50.150;8.756;2022-12-07T08:10:11;5.80;99.90
17172;DHT22;8701;50.150;8.756;2022-12-07T08:14:15;5.80;99.90
17172;DHT22;8701;50.150;8.756;2022-12-07T08:18:18;5.90;99.90
17172;DHT22;8701;50.150;8.756;2022-12-07T08:22:20;5.90;99.90
17172;DHT22;8701;50.150;8.756;2022-12-07T08:26:23;5.90;99.90
17172;DHT22;8701;50.150;8.756;2022-12-07T08:30:28;5.90;99.90
17172;DHT22;8701;50.150;8.756;2022-12-07T08:34:31;5.90;99.90
17172;DHT22;8701;50.150;8.756;2022-12-07T08:38:34;5.90;99.90
17172;DHT22;8701;50.150;8.756;2022-12-07T08:42:38;5.90;99.90
17172;DHT22;8701;50.150;8.756;2022-12-07T08:46:45;5.90;99.90
17172;DHT22;8701;50.150;8.756;2022-12-07T08:51:07;5.90;99.90
17172;DHT22;8701;50.150;8.756;2022-12-07T08:55:28;6.00;99.90
17172;DHT22;8701;50.150;8.756;2022-12-07T08:59:36;6.00;99.90
17172;DHT22;8701;50.150;8.756;2022-12-07T09:03:41;6.10;99.90
17172;DHT22;8701;50.150;8.756;2022-12-07T09:07:51;6.30;99.90
17172;DHT22;8701;50.150;8.756;2022-12-07T09:11:56;6.70;99.90
17172;DHT22;8701;50.150;8.756;2022-12-07T09:15:59;6.80;99.90
17172;DHT22;8701;50.150;8.756;2022-12-07T09:20:06;6.80;99.90
17172;DHT22;8701;50.150;8.756;2022-12-07T09:24:08;7.00;99.90
17172;DHT22;8701;50.150;8.756;2022-12-07T09:28:11;7.00;99.90
17172;DHT22;8701;50.150;8.756;2022-12-07T09:32:13;7.20;99.90
17172;DHT22;8701;50.150;8.756;2022-12-07T09:36:21;7.50;99.90
17172;DHT22;8701;50.150;8.756;2022-12-07T09:40:33;7.60;99.90
17172;DHT22;8701;50.150;8.756;2022-12-07T09:44:39;8.10;99.90
17172;DHT22;8701;50.150;8.756;2022-12-07T09:48:43;8.00;99.90
17172;DHT22;8701;50.150;8.756;2022-12-07T09:52:47;7.90;99.90
17172;DHT22;8701;50.150;8.756;2022-12-07T09:56:53;8.10;99.90
17172;DHT22;8701;50.150;8.756;2022-12-07T10:00:58;8.20;99.90
17172;DHT22;8701;50.150;8.756;2022-12-07T10:05:05;8.60;99.90
17172;DHT22;8701;50.150;8.756;2022-12-07T10:09:11;8.90;99.90
17172;DHT22;8701;50.150;8.756;2022-12-07T10:13:15;8.90;99.90
17172;DHT22;8701;50.150;8.756;2022-12-07T10:17:36;8.70;99.90
17172;DHT22;8701;50.150;8.756;2022-12-07T10:22:00;8.60;99.90
17172;DHT22;8701;50.150;8.756;2022-12-07T10:26:25;8.00;99.90
17172;DHT22;8701;50.150;8.756;2022-12-07T10:30:29;7.80;99.90
17172;DHT22;8701;50.150;8.756;2022-12-07T10:34:34;7.70;99.90
17172;DHT22;8701;50.150;8.756;2022-12-07T10:38:44;7.70;99.90
17172;DHT22;8701;50.150;8.756;2022-12-07T10:43:00;7.90;99.90
17172;DHT22;8701;50.150;8.756;2022-12-07T10:47:14;8.00;99.90
17172;DHT22;8701;50.150;8.756;2022-12-07T10:51:29;8.10;99.90
17172;DHT22;8701;50.150;8.756;2022-12-07T10:55:42;8.00;99.90
17172;DHT22;8701;50.150;8.756;2022-12-07T11:00:13;8.10;99.90
17172;DHT22;8701;50.150;8.756;2022-12-07T11:04:32;8.30;99.90
17172;DHT22;8701;50.150;8.756;2022-12-07T11:08:51;8.40;99.90
17172;DHT22;8701;50.150;8.756;2022-12-07T11:17:39;9.10;99.90
17172;DHT22;8701;50.150;8.756;2022-12-07T11:21:50;9.50;99.90
17172;DHT22;8701;50.150;8.756;2022-12-07T11:26:01;10.00;99.90
17172;DHT22;8701;50.150;8.756;2022-12-07T11:30:17;9.60;99.90
17172;DHT22;8701;50.150;8.756;2022-12-07T11:34:31;9.20;99.90
17172;DHT22;8701;50.150;8.756;2022-12-07T11:38:41;9.00;99.90
17172;DHT22;8701;50.150;8.756;2022-12-07T11:42:49;9.00;99.90
17172;DHT22;8701;50.150;8.756;2022-12-07T11:46:58;8.70;99.90
17172;DHT22;8701;50.150;8.756;2022-12-07T11:51:03;8.70;99.90
17172;DHT22;8701;50.150;8.756;2022-12-07T11:55:19;8.70;99.90
17172;DHT22;8701;50.150;8.756;2022-12-07T11:59:27;9.10;99.90
17172;DHT22;8701;50.150;8.756;2022-12-07T12:03:36;9.10;99.90
17172;DHT22;8701;50.150;8.756;2022-12-07T12:07:44;8.80;99.90
17172;DHT22;8701;50.150;8.756;2022-12-07T12:12:01;9.90;99.90
17172;DHT22;8701;50.150;8.756;2022-12-07T12:16:19;12.00;99.90
17172;DHT22;8701;50.150;8.756;2022-12-07T12:20:26;13.40;99.90
17172;DHT22;8701;50.150;8.756;2022-12-07T12:24:32;12.90;99.90
17172;DHT22;8701;50.150;8.756;2022-12-07T12:28:41;12.50;99.90
17172;DHT22;8701;50.150;8.756;2022-12-07T12:32:45;13.10;99.90
17172;DHT22;8701;50.150;8.756;2022-12-07T12:36:48;12.90;99.90
17172;DHT22;8701;50.150;8.756;2022-12-07T12:40:54;12.80;99.90
17172;DHT22;8701;50.150;8.756;2022-12-07T12:49:40;11.50;99.90
17172;DHT22;8701;50.150;8.756;2022-12-07T12:53:44;10.80;99.90
17172;DHT22;8701;50.150;8.756;2022-12-07T13:02:34;10.20;99.90
17172;DHT22;8701;50.150;8.756;2022-12-07T13:06:38;9.80;99.90
17172;DHT22;8701;50.150;8.756;2022-12-07T13:10:44;9.30;99.90
17172;DHT22;8701;50.150;8.756;2022-12-07T13:14:59;9.10;99.90
17172;DHT22;8701;50.150;8.756;2022-12-07T13:19:01;8.80;99.90
17172;DHT22;8701;50.150;8.756;2022-12-07T13:23:04;8.70;99.90
17172;DHT22;8701;50.150;8.756;2022-12-07T13:27:11;8.80;99.90
17172;DHT22;8701;50.150;8.756;2022-12-07T13:31:20;8.90;99.90
17172;DHT22;8701;50.150;8.756;2022-12-07T13:35:33;8.70;99.90
17172;DHT22;8701;50.150;8.756;2022-12-07T13:39:44;8.90;99.90
17172;DHT22;8701;50.150;8.756;2022-12-07T13:43:54;9.30;99.90
17172;DHT22;8701;50.150;8.756;2022-12-07T13:47:59;9.60;99.90
17172;DHT22;8701;50.150;8.756;2022-12-07T13:52:15;9.60;99.90
17172;DHT22;8701;50.150;8.756;2022-12-07T13:56:18;9.50;99.90
17172;DHT22;8701;50.150;8.756;2022-12-07T14:00:23;9.30;99.90
17172;DHT22;8701;50.150;8.756;2022-12-07T14:04:37;9.10;99.90
17172;DHT22;8701;50.150;8.756;2022-12-07T14:08:41;9.00;99.90
17172;DHT22;8701;50.150;8.756;2022-12-07T14:12:43;8.90;99.90
17172;DHT22;8701;50.150;8.756;2022-12-07T14:16:56;8.70;99.90
17172;DHT22;8701;50.150;8.756;2022-12-07T14:21:05;8.60;99.90
17172;DHT22;8701;50.150;8.756;2022-12-07T14:25:18;8.40;99.90
17172;DHT22;8701;50.150;8.756;2022-12-07T14:29:32;8.40;99.90
17172;DHT22;8701;50.150;8.756;2022-12-07T14:33:35;8.50;99.90
17172;DHT22;8701;50.150;8.756;2022-12-07T14:37:41;8.50;99.90
17172;DHT22;8701;50.150;8.756;2022-12-07T14:41:43;8.60;99.90
17172;DHT22;8701;50.150;8.756;2022-12-07T14:45:52;8.50;99.90
17172;DHT22;8701;50.150;8.756;2022-12-07T14:49:55;8.50;99.90
17172;DHT22;8701;50.150;8.756;2022-12-07T14:53:59;8.50;99.90
17172;DHT22;8701;50.150;8.756;2022-12-07T14:58:02;8.40;99.90
17172;DHT22;8701;50.150;8.756;2022-12-07T15:02:05;8.30;99.90
17172;DHT22;8701;50.150;8.756;2022-12-07T15:06:07;8.10;99.90
17172;DHT22;8701;50.150;8.756;2022-12-07T15:10:16;8.00;99.90
17172;DHT22;8701;50.150;8.756;2022-12-07T15:14:19;7.80;99.90
17172;DHT22;8701;50.150;8.756;2022-12-07T15:18:23;7.60;99.90
17172;DHT22;8701;50.150;8.756;2022-12-07T15:22:25;7.50;99.90
17172;DHT22;8701;50.150;8.756;2022-12-07T15:26:29;7.60;99.90
17172;DHT22;8701;50.150;8.756;2022-12-07T15:30:33;7.50;99.90
17172;DHT22;8701;50.150;8.756;2022-12-07T15:34:35;7.50;99.90
17172;DHT22;8701;50.150;8.756;2022-12-07T15:38:38;7.50;99.90
17172;DHT22;8701;50.150;8.756;2022-12-07T15:42:41;7.50;99.90
17172;DHT22;8701;50.150;8.756;2022-12-07T15:46:47;7.50;99.90
17172;DHT22;8701;50.150;8.756;2022-12-07T15:51:13;7.50;99.90
17172;DHT22;8701;50.150;8.756;2022-12-07T15:55:34;7.30;99.90
17172;DHT22;8701;50.150;8.756;2022-12-07T15:59:38;7.30;99.90
17172;DHT22;8701;50.150;8.756;2022-12-07T16:03:41;7.30;99.90
17172;DHT22;8701;50.150;8.756;2022-12-07T16:07:44;7.20;99.90
17172;DHT22;8701;50.150;8.756;2022-12-07T16:11:48;7.10;99.90
17172;DHT22;8701;50.150;8.756;2022-12-07T16:15:56;7.10;99.90
17172;DHT22;8701;50.150;8.756;2022-12-07T16:19:59;7.10;99.90
17172;DHT22;8701;50.150;8.756;2022-12-07T16:24:05;7.10;99.90
17172;DHT22;8701;50.150;8.756;2022-12-07T16:28:08;7.10;99.90
17172;DHT22;8701;50.150;8.756;2022-12-07T16:32:12;7.10;99.90
17172;DHT22;8701;50.150;8.756;2022-12-07T16:36:15;7.10;99.90
17172;DHT22;8701;50.150;8.756;2022-12-07T16:40:18;7.10;99.90
17172;DHT22;8701;50.150;8.756;2022-12-07T16:44:20;7.10;99.90
17172;DHT22;8701;50.150;8.756;2022-12-07T16:48:25;7.10;99.90
17172;DHT22;8701;50.150;8.756;2022-12-07T16:52:27;7.10;99.90
17172;DHT22;8701;50.150;8.756;2022-12-07T16:56:29;7.10;99.90
17172;DHT22;8701;50.150;8.756;2022-12-07T17:00:32;7.10;99.90
17172;DHT22;8701;50.150;8.756;2022-12-07T17:04:35;7.00;99.90
17172;DHT22;8701;50.150;8.756;2022-12-07T17:08:40;7.00;99.90
17172;DHT22;8701;50.150;8.756;2022-12-07T17:12:43;7.10;99.90
17172;DHT22;8701;50.150;8.756;2022-12-07T17:16:45;7.10;99.90
17172;DHT22;8701;50.150;8.756;2022-12-07T17:20:49;7.10;99.90
17172;DHT22;8701;50.150;8.756;2022-12-07T17:24:52;7.00;99.90
17172;DHT22;8701;50.150;8.756;2022-12-07T17:28:55;7.00;99.90
17172;DHT22;8701;50.150;8.756;2022-12-07T17:32:57;7.00;99.90
17172;DHT22;8701;50.150;8.756;2022-12-07T17:37:01;6.90;99.90
17172;DHT22;8701;50.150;8.756;2022-12-07T17:41:11;6.80;99.90
17172;DHT22;8701;50.150;8.756;2022-12-07T17:45:35;6.80;99.90
17172;DHT22;8701;50.150;8.756;2022-12-07T17:49:38;6.80;99.90
17172;DHT22;8701;50.150;8.756;2022-12-07T17:53:42;6.80;99.90
17172;DHT22;8701;50.150;8.756;2022-12-07T17:57:45;6.80;99.90
17172;DHT22;8701;50.150;8.756;2022-12-07T18:01:47;6.70;99.90
17172;DHT22;8701;50.150;8.756;2022-12-07T18:05:49;6.80;99.90
17172;DHT22;8701;50.150;8.756;2022-12-07T18:09:53;6.70;99.90
17172;DHT22;8701;50.150;8.756;2022-12-07T18:13:56;6.60;99.90
17172;DHT22;8701;50.150;8.756;2022-12-07T18:17:58;6.50;99.90
17172;DHT22;8701;50.150;8.756;2022-12-07T18:22:02;6.40;99.90
17172;DHT22;8701;50.150;8.756;2022-12-07T18:26:06;6.40;99.90
17172;DHT22;8701;50.150;8.756;2022-12-07T18:30:10;6.40;99.90
17172;DHT22;8701;50.150;8.756;2022-12-07T18:34:14;6.50;99.90
17172;DHT22;8701;50.150;8.756;2022-12-07T18:38:18;6.50;99.90
17172;DHT22;8701;50.150;8.756;2022-12-07T18:42:21;6.50;99.90
17172;DHT22;8701;50.150;8.756;2022-12-07T18:46:24;6.60;99.90
17172;DHT22;8701;50.150;8.756;2022-12-07T18:50:26;6.60;99.90
17172;DHT22;8701;50.150;8.756;2022-12-07T18:54:30;6.60;99.90
17172;DHT22;8701;50.150;8.756;2022-12-07T18:58:34;6.60;99.90
17172;DHT22;8701;50.150;8.756;2022-12-07T19:02:36;6.60;99.90
17172;DHT22;8701;50.150;8.756;2022-12-07T19:06:40;6.60;99.90
17172;DHT22;8701;50.150;8.756;2022-12-07T19:10:43;6.60;99.90
17172;DHT22;8701;50.150;8.756;2022-12-07T19:14:46;6.80;99.90
17172;DHT22;8701;50.150;8.756;2022-12-07T19:18:49;6.50;99.90
17172;DHT22;8701;50.150;8.756;2022-12-07T19:22:55;6.50;99.90
17172;DHT22;8701;50.150;8.756;2022-12-07T19:26:57;6.50;99.90
17172;DHT22;8701;50.150;8.756;2022-12-07T19:31:06;6.50;99.90
17172;DHT22;8701;50.150;8.756;2022-12-07T19:35:08;6.50;99.90
17172;DHT22;8701;50.150;8.756;2022-12-07T19:39:13;6.50;99.90
17172;DHT22;8701;50.150;8.756;2022-12-07T19:43:16;6.50;99.90
17172;DHT22;8701;50.150;8.756;2022-12-07T19:47:20;6.50;99.90
17172;DHT22;8701;50.150;8.756;2022-12-07T19:51:23;6.50;99.90
17172;DHT22;8701;50.150;8.756;2022-12-07T19:55:25;6.50;99.90
17172;DHT22;8701;50.150;8.756;2022-12-07T19:59:29;6.50;99.90
17172;DHT22;8701;50.150;8.756;2022-12-07T20:03:35;6.60;99.90
17172;DHT22;8701;50.150;8.756;2022-12-07T20:07:37;6.50;99.90
17172;DHT22;8701;50.150;8.756;2022-12-07T20:11:41;6.60;99.90
17172;DHT22;8701;50.150;8.756;2022-12-07T20:16:02;6.50;99.90
17172;DHT22;8701;50.150;8.756;2022-12-07T20:20:12;6.50;99.90
17172;DHT22;8701;50.150;8.756;2022-12-07T20:24:17;6.50;99.90
17172;DHT22;8701;50.150;8.756;2022-12-07T20:28:24;6.80;99.90
17172;DHT22;8701;50.150;8.756;2022-12-07T20:32:26;6.40;99.90
17172;DHT22;8701;50.150;8.756;2022-12-07T20:36:30;6.40;99.90
17172;DHT22;8701;50.150;8.756;2022-12-07T20:40:33;6.40;99.90
17172;DHT22;8701;50.150;8.756;2022-12-07T20:44:36;6.40;99.90
17172;DHT22;8701;50.150;8.756;2022-12-07T20:48:38;6.30;99.90
17172;DHT22;8701;50.150;8.756;2022-12-07T20:52:46;6.30;99.90
17172;DHT22;8701;50.150;8.756;2022-12-07T20:56:50;6.30;99.90
17172;DHT22;8701;50.150;8.756;2022-12-07T21:00:59;6.30;99.90
17172;DHT22;8701;50.150;8.756;2022-12-07T21:05:01;6.20;99.90
17172;DHT22;8701;50.150;8.756;2022-12-07T21:09:05;6.30;99.90
17172;DHT22;8701;50.150;8.756;2022-12-07T21:13:08;6.20;99.90
17172;DHT22;8701;50.150;8.756;2022-12-07T21:17:10;6.20;99.90
17172;DHT22;8701;50.150;8.756;2022-12-07T21:21:14;6.20;99.90
17172;DHT22;8701;50.150;8.756;2022-12-07T21:25:20;6.30;99.90
17172;DHT22;8701;50.150;8.756;2022-12-07T21:29:22;6.30;99.90
17172;DHT22;8701;50.150;8.756;2022-12-07T21:33:25;6.30;99.90
17172;DHT22;8701;50.150;8.756;2022-12-07T21:37:27;6.20;99.90
17172;DHT22;8701;50.150;8.756;2022-12-07T21:41:33;6.20;99.90
17172;DHT22;8701;50.150;8.756;2022-12-07T21:45:36;6.10;99.90
17172;DHT22;8701;50.150;8.756;2022-12-07T21:49:39;6.20;99.90
17172;DHT22;8701;50.150;8.756;2022-12-07T21:53:42;6.10;99.90
17172;DHT22;8701;50.150;8.756;2022-12-07T21:57:46;6.00;99.90
17172;DHT22;8701;50.150;8.756;2022-12-07T22:01:49;6.10;99.90
17172;DHT22;8701;50.150;8.756;2022-12-07T22:05:57;6.00;99.90
17172;DHT22;8701;50.150;8.756;2022-12-07T22:10:01;5.90;99.90
17172;DHT22;8701;50.150;8.756;2022-12-07T22:14:05;5.90;99.90
17172;DHT22;8701;50.150;8.756;2022-12-07T22:18:25;5.80;99.90
17172;DHT22;8701;50.150;8.756;2022-12-07T22:22:27;5.80;99.90
17172;DHT22;8701;50.150;8.756;2022-12-07T22:26:30;5.80;99.90
17172;DHT22;8701;50.150;8.756;2022-12-07T22:30:34;5.80;99.90
17172;DHT22;8701;50.150;8.756;2022-12-07T22:34:36;5.80;99.90
17172;DHT22;8701;50.150;8.756;2022-12-07T22:38:40;5.80;99.90
17172;DHT22;8701;50.150;8.756;2022-12-07T22:42:42;5.70;99.90
17172;DHT22;8701;50.150;8.756;2022-12-07T22:46:50;5.60;99.90
17172;DHT22;8701;50.150;8.756;2022-12-07T22:50:53;5.70;99.90
17172;DHT22;8701;50.150;8.756;2022-12-07T22:54:55;5.60;99.90
17172;DHT22;8701;50.150;8.756;2022-12-07T22:58:58;5.60;99.90
17172;DHT22;8701;50.150;8.756;2022-12-07T23:03:02;5.60;99.90
17172;DHT22;8701;50.150;8.756;2022-12-07T23:07:07;5.60;99.90
17172;DHT22;8701;50.150;8.756;2022-12-07T23:11:10;5.60;99.90
17172;DHT22;8701;50.150;8.756;2022-12-07T23:15:33;5.50;99.90
17172;DHT22;8701;50.150;8.756;2022-12-07T23:19:37;5.50;99.90
17172;DHT22;8701;50.150;8.756;2022-12-07T23:23:39;5.50;99.90
17172;DHT22;8701;50.150;8.756;2022-12-07T23:27:41;5.50;99.90
17172;DHT22;8701;50.150;8.756;2022-12-07T23:31:47;5.50;99.90
17172;DHT22;8701;50.150;8.756;2022-12-07T23:35:51;5.50;99.90
17172;DHT22;8701;50.150;8.756;2022-12-07T23:39:54;5.60;99.90
17172;DHT22;8701;50.150;8.756;2022-12-07T23:43:57;5.60;99.90
17172;DHT22;8701;50.150;8.756;2022-12-07T23:48:00;5.60;99.90
17172;DHT22;8701;50.150;8.756;2022-12-07T23:52:04;5.50;99.90
17172;DHT22;8701;50.150;8.756;2022-12-07T23:56:10;5.60;99.90
